sensor_id;sensor_type;location;lat;lon;timestamp;pressure;altitude;pressure_sealevel;temperature;humidity
57562;BME280;43397;51.530;5.974;2023-01-28T00:00:34;102468.88;;;6.39;74.26
57562;BME280;43397;51.530;5.974;2023-01-28T00:03:00;102469.88;;;6.69;74.04
57562;BME280;43397;51.530;5.974;2023-01-28T00:05:26;102469.16;;;6.74;73.07
57562;BME280;43397;51.530;5.974;2023-01-28T00:07:51;102473.19;;;6.63;73.61
57562;BME280;43397;51.530;5.974;2023-01-28T00:10:17;102476.63;;;6.86;73.57
57562;BME280;43397;51.530;5.974;2023-01-28T00:12:43;102477.03;;;6.22;75.46
57562;BME280;43397;51.530;5.974;2023-01-28T00:15:10;102469.28;;;6.26;75.75
57562;BME280;43397;51.530;5.974;2023-01-28T00:17:36;102477.38;;;6.07;74.46
57562;BME280;43397;51.530;5.974;2023-01-28T00:20:02;102469.94;;;5.95;74.75
57562;BME280;43397;51.530;5.974;2023-01-28T00:22:28;102458.75;;;6.02;74.58
57562;BME280;43397;51.530;5.974;2023-01-28T00:24:54;102470.72;;;5.94;75.93
57562;BME280;43397;51.530;5.974;2023-01-28T00:27:19;102464.75;;;6.48;75.24
57562;BME280;43397;51.530;5.974;2023-01-28T00:29:45;102467.75;;;6.33;75.06
57562;BME280;43397;51.530;5.974;2023-01-28T00:32:12;102462.47;;;6.58;74.92
57562;BME280;43397;51.530;5.974;2023-01-28T00:34:37;102467.09;;;6.64;73.49
57562;BME280;43397;51.530;5.974;2023-01-28T00:37:03;102468.84;;;6.14;76.22
57562;BME280;43397;51.530;5.974;2023-01-28T00:39:29;102472.63;;;6.72;74.63
57562;BME280;43397;51.530;5.974;2023-01-28T00:41:54;102470.31;;;6.30;75.35
57562;BME280;43397;51.530;5.974;2023-01-28T00:44:20;102465.78;;;6.53;74.83
57562;BME280;43397;51.530;5.974;2023-01-28T00:46:46;102472.41;;;6.66;74.04
57562;BME280;43397;51.530;5.974;2023-01-28T00:49:13;102469.66;;;6.63;73.38
57562;BME280;43397;51.530;5.974;2023-01-28T00:51:39;102471.25;;;6.32;75.08
57562;BME280;43397;51.530;5.974;2023-01-28T00:54:06;102467.81;;;6.60;74.07
57562;BME280;43397;51.530;5.974;2023-01-28T00:56:32;102466.81;;;6.56;73.73
57562;BME280;43397;51.530;5.974;2023-01-28T00:58:58;102475.44;;;6.27;74.66
57562;BME280;43397;51.530;5.974;2023-01-28T01:01:25;102487.75;;;6.26;75.09
57562;BME280;43397;51.530;5.974;2023-01-28T01:03:53;102484.19;;;6.00;75.37
57562;BME280;43397;51.530;5.974;2023-01-28T01:06:20;102487.69;;;5.99;76.00
57562;BME280;43397;51.530;5.974;2023-01-28T01:08:46;102487.66;;;6.23;75.59
57562;BME280;43397;51.530;5.974;2023-01-28T01:11:11;102487.44;;;6.17;75.08
57562;BME280;43397;51.530;5.974;2023-01-28T01:13:37;102488.88;;;6.33;74.74
57562;BME280;43397;51.530;5.974;2023-01-28T01:16:05;102489.78;;;6.33;74.01
57562;BME280;43397;51.530;5.974;2023-01-28T01:18:32;102486.75;;;6.23;73.67
57562;BME280;43397;51.530;5.974;2023-01-28T01:20:58;102489.19;;;6.16;75.14
57562;BME280;43397;51.530;5.974;2023-01-28T01:23:26;102479.38;;;6.14;74.31
57562;BME280;43397;51.530;5.974;2023-01-28T01:25:51;102486.31;;;6.10;73.48
57562;BME280;43397;51.530;5.974;2023-01-28T01:28:17;102495.22;;;6.14;74.38
57562;BME280;43397;51.530;5.974;2023-01-28T01:30:43;102487.13;;;6.33;73.94
57562;BME280;43397;51.530;5.974;2023-01-28T01:33:09;102484.56;;;6.11;74.57
57562;BME280;43397;51.530;5.974;2023-01-28T01:35:34;102479.78;;;6.01;74.42
57562;BME280;43397;51.530;5.974;2023-01-28T01:38:01;102479.41;;;6.38;73.48
57562;BME280;43397;51.530;5.974;2023-01-28T01:40:29;102477.28;;;6.53;72.45
57562;BME280;43397;51.530;5.974;2023-01-28T01:42:54;102495.47;;;6.20;72.56
57562;BME280;43397;51.530;5.974;2023-01-28T01:45:20;102497.53;;;6.29;72.08
57562;BME280;43397;51.530;5.974;2023-01-28T01:47:52;102494.44;;;6.41;73.03
57562;BME280;43397;51.530;5.974;2023-01-28T01:50:24;102492.56;;;6.12;73.23
57562;BME280;43397;51.530;5.974;2023-01-28T01:52:53;102499.41;;;5.85;72.27
57562;BME280;43397;51.530;5.974;2023-01-28T01:55:20;102491.81;;;5.92;73.23
57562;BME280;43397;51.530;5.974;2023-01-28T01:57:50;102493.50;;;5.68;73.65
57562;BME280;43397;51.530;5.974;2023-01-28T02:00:17;102503.38;;;5.96;74.39
57562;BME280;43397;51.530;5.974;2023-01-28T02:02:44;102499.50;;;6.34;72.86
57562;BME280;43397;51.530;5.974;2023-01-28T02:05:13;102506.88;;;6.19;73.20
57562;BME280;43397;51.530;5.974;2023-01-28T02:07:39;102505.72;;;5.88;73.34
57562;BME280;43397;51.530;5.974;2023-01-28T02:10:07;102510.25;;;5.68;75.37
57562;BME280;43397;51.530;5.974;2023-01-28T02:12:35;102507.63;;;5.92;73.20
57562;BME280;43397;51.530;5.974;2023-01-28T02:15:06;102508.34;;;5.88;74.21
57562;BME280;43397;51.530;5.974;2023-01-28T02:17:33;102507.66;;;6.16;73.80
57562;BME280;43397;51.530;5.974;2023-01-28T02:20:00;102498.41;;;6.04;73.97
57562;BME280;43397;51.530;5.974;2023-01-28T02:22:51;102499.19;;;6.25;72.90
57562;BME280;43397;51.530;5.974;2023-01-28T02:25:40;102506.34;;;6.05;74.07
57562;BME280;43397;51.530;5.974;2023-01-28T02:28:14;102506.44;;;5.84;73.68
57562;BME280;43397;51.530;5.974;2023-01-28T02:30:47;102512.19;;;5.96;74.64
57562;BME280;43397;51.530;5.974;2023-01-28T02:33:18;102517.59;;;5.77;74.73
57562;BME280;43397;51.530;5.974;2023-01-28T02:35:51;102507.00;;;5.75;74.38
57562;BME280;43397;51.530;5.974;2023-01-28T02:38:19;102508.53;;;5.48;75.11
57562;BME280;43397;51.530;5.974;2023-01-28T02:40:50;102507.44;;;5.88;74.88
57562;BME280;43397;51.530;5.974;2023-01-28T02:43:28;102506.53;;;5.41;72.25
57562;BME280;43397;51.530;5.974;2023-01-28T02:45:54;102513.56;;;5.42;73.83
57562;BME280;43397;51.530;5.974;2023-01-28T02:48:22;102512.06;;;5.48;73.22
57562;BME280;43397;51.530;5.974;2023-01-28T02:50:52;102498.28;;;5.33;72.32
57562;BME280;43397;51.530;5.974;2023-01-28T02:53:22;102504.59;;;5.59;71.94
57562;BME280;43397;51.530;5.974;2023-01-28T02:55:55;102505.72;;;5.66;72.36
57562;BME280;43397;51.530;5.974;2023-01-28T02:58:30;102507.47;;;5.65;72.40
57562;BME280;43397;51.530;5.974;2023-01-28T03:01:02;102508.41;;;5.22;72.32
57562;BME280;43397;51.530;5.974;2023-01-28T03:03:36;102504.25;;;5.50;70.87
57562;BME280;43397;51.530;5.974;2023-01-28T03:06:07;102499.84;;;5.95;68.28
57562;BME280;43397;51.530;5.974;2023-01-28T03:08:38;102499.59;;;5.44;71.29
57562;BME280;43397;51.530;5.974;2023-01-28T03:11:07;102496.69;;;5.36;70.23
57562;BME280;43397;51.530;5.974;2023-01-28T03:13:35;102506.03;;;5.73;70.84
57562;BME280;43397;51.530;5.974;2023-01-28T03:16:02;102500.00;;;5.53;70.40
57562;BME280;43397;51.530;5.974;2023-01-28T03:18:33;102513.94;;;5.96;70.01
57562;BME280;43397;51.530;5.974;2023-01-28T03:21:04;102516.59;;;5.73;70.47
57562;BME280;43397;51.530;5.974;2023-01-28T03:23:37;102511.47;;;5.78;71.15
57562;BME280;43397;51.530;5.974;2023-01-28T03:26:06;102505.84;;;5.69;69.26
57562;BME280;43397;51.530;5.974;2023-01-28T03:28:35;102516.50;;;5.72;68.69
57562;BME280;43397;51.530;5.974;2023-01-28T03:31:03;102506.19;;;6.01;69.65
57562;BME280;43397;51.530;5.974;2023-01-28T03:33:31;102513.72;;;6.38;68.74
57562;BME280;43397;51.530;5.974;2023-01-28T03:35:58;102514.31;;;6.31;68.52
57562;BME280;43397;51.530;5.974;2023-01-28T03:38:25;102511.66;;;6.29;69.31
57562;BME280;43397;51.530;5.974;2023-01-28T03:40:51;102515.19;;;5.83;70.26
57562;BME280;43397;51.530;5.974;2023-01-28T03:43:20;102521.13;;;5.55;69.98
57562;BME280;43397;51.530;5.974;2023-01-28T03:45:48;102521.34;;;5.60;71.37
57562;BME280;43397;51.530;5.974;2023-01-28T03:48:13;102518.16;;;5.68;71.27
57562;BME280;43397;51.530;5.974;2023-01-28T03:50:39;102515.19;;;6.06;68.40
57562;BME280;43397;51.530;5.974;2023-01-28T03:53:05;102523.13;;;5.61;69.63
57562;BME280;43397;51.530;5.974;2023-01-28T03:55:30;102519.28;;;5.75;70.06
57562;BME280;43397;51.530;5.974;2023-01-28T03:57:56;102516.56;;;5.96;68.55
57562;BME280;43397;51.530;5.974;2023-01-28T04:00:22;102523.28;;;5.65;69.19
57562;BME280;43397;51.530;5.974;2023-01-28T04:02:49;102515.81;;;5.53;68.89
57562;BME280;43397;51.530;5.974;2023-01-28T04:05:15;102518.19;;;5.70;69.21
57562;BME280;43397;51.530;5.974;2023-01-28T04:07:40;102522.28;;;5.84;67.74
57562;BME280;43397;51.530;5.974;2023-01-28T04:10:07;102527.53;;;6.07;69.63
57562;BME280;43397;51.530;5.974;2023-01-28T04:12:33;102528.88;;;5.73;68.36
57562;BME280;43397;51.530;5.974;2023-01-28T04:14:58;102530.34;;;5.89;69.65
57562;BME280;43397;51.530;5.974;2023-01-28T04:17:24;102530.78;;;6.00;69.73
57562;BME280;43397;51.530;5.974;2023-01-28T04:19:51;102533.03;;;6.13;69.12
57562;BME280;43397;51.530;5.974;2023-01-28T04:22:17;102532.09;;;5.88;68.56
57562;BME280;43397;51.530;5.974;2023-01-28T04:24:42;102531.91;;;5.61;68.88
57562;BME280;43397;51.530;5.974;2023-01-28T04:27:08;102537.94;;;5.80;69.24
57562;BME280;43397;51.530;5.974;2023-01-28T04:29:34;102544.28;;;5.85;69.08
57562;BME280;43397;51.530;5.974;2023-01-28T04:32:00;102550.09;;;5.53;71.22
57562;BME280;43397;51.530;5.974;2023-01-28T04:34:25;102544.94;;;5.34;68.43
57562;BME280;43397;51.530;5.974;2023-01-28T04:36:52;102535.19;;;5.10;70.80
57562;BME280;43397;51.530;5.974;2023-01-28T04:39:18;102536.66;;;5.70;70.54
57562;BME280;43397;51.530;5.974;2023-01-28T04:41:44;102536.41;;;6.09;70.03
57562;BME280;43397;51.530;5.974;2023-01-28T04:44:09;102533.94;;;5.91;66.88
57562;BME280;43397;51.530;5.974;2023-01-28T04:46:35;102531.13;;;5.64;69.46
57562;BME280;43397;51.530;5.974;2023-01-28T04:49:01;102533.13;;;5.47;70.15
57562;BME280;43397;51.530;5.974;2023-01-28T04:51:27;102535.31;;;5.81;70.70
57562;BME280;43397;51.530;5.974;2023-01-28T04:53:54;102531.78;;;5.81;70.77
57562;BME280;43397;51.530;5.974;2023-01-28T04:56:20;102540.78;;;5.63;72.44
57562;BME280;43397;51.530;5.974;2023-01-28T04:58:45;102535.22;;;5.78;72.58
57562;BME280;43397;51.530;5.974;2023-01-28T05:01:11;102526.53;;;5.81;70.45
57562;BME280;43397;51.530;5.974;2023-01-28T05:03:37;102532.97;;;5.42;70.00
57562;BME280;43397;51.530;5.974;2023-01-28T05:06:03;102532.38;;;5.28;68.42
57562;BME280;43397;51.530;5.974;2023-01-28T05:08:28;102534.13;;;5.50;69.07
57562;BME280;43397;51.530;5.974;2023-01-28T05:10:56;102529.97;;;5.55;69.82
57562;BME280;43397;51.530;5.974;2023-01-28T05:13:21;102533.41;;;5.54;67.81
57562;BME280;43397;51.530;5.974;2023-01-28T05:15:51;102539.50;;;5.31;69.22
57562;BME280;43397;51.530;5.974;2023-01-28T05:18:16;102529.44;;;5.64;68.34
57562;BME280;43397;51.530;5.974;2023-01-28T05:20:42;102542.41;;;5.82;67.17
57562;BME280;43397;51.530;5.974;2023-01-28T05:23:08;102543.63;;;5.24;69.05
57562;BME280;43397;51.530;5.974;2023-01-28T05:25:33;102539.84;;;5.39;69.17
57562;BME280;43397;51.530;5.974;2023-01-28T05:28:02;102542.41;;;5.16;69.04
57562;BME280;43397;51.530;5.974;2023-01-28T05:30:27;102546.69;;;5.12;68.60
57562;BME280;43397;51.530;5.974;2023-01-28T05:32:54;102545.13;;;5.18;67.73
57562;BME280;43397;51.530;5.974;2023-01-28T05:35:20;102537.38;;;5.66;66.11
57562;BME280;43397;51.530;5.974;2023-01-28T05:37:45;102541.97;;;5.26;65.97
57562;BME280;43397;51.530;5.974;2023-01-28T05:40:11;102533.84;;;5.65;65.69
57562;BME280;43397;51.530;5.974;2023-01-28T05:42:37;102526.66;;;5.18;66.79
57562;BME280;43397;51.530;5.974;2023-01-28T05:45:05;102538.31;;;4.81;68.74
57562;BME280;43397;51.530;5.974;2023-01-28T05:47:32;102540.25;;;4.85;67.42
57562;BME280;43397;51.530;5.974;2023-01-28T05:49:58;102530.69;;;4.87;67.18
57562;BME280;43397;51.530;5.974;2023-01-28T05:52:23;102538.50;;;4.64;67.83
57562;BME280;43397;51.530;5.974;2023-01-28T05:54:49;102546.72;;;4.72;68.00
57562;BME280;43397;51.530;5.974;2023-01-28T05:57:16;102546.03;;;4.16;69.25
57562;BME280;43397;51.530;5.974;2023-01-28T05:59:41;102553.50;;;4.46;69.25
57562;BME280;43397;51.530;5.974;2023-01-28T06:02:08;102545.78;;;4.91;66.87
57562;BME280;43397;51.530;5.974;2023-01-28T06:04:34;102551.09;;;5.34;66.16
57562;BME280;43397;51.530;5.974;2023-01-28T06:07:00;102562.72;;;5.40;66.58
57562;BME280;43397;51.530;5.974;2023-01-28T06:09:25;102556.88;;;5.05;67.84
57562;BME280;43397;51.530;5.974;2023-01-28T06:11:52;102554.13;;;5.02;68.46
57562;BME280;43397;51.530;5.974;2023-01-28T06:14:18;102562.94;;;5.23;66.86
57562;BME280;43397;51.530;5.974;2023-01-28T06:16:44;102554.78;;;4.75;67.21
57562;BME280;43397;51.530;5.974;2023-01-28T06:19:11;102555.75;;;4.77;67.83
57562;BME280;43397;51.530;5.974;2023-01-28T06:21:36;102562.13;;;4.63;68.23
57562;BME280;43397;51.530;5.974;2023-01-28T06:24:02;102561.00;;;5.19;66.68
57562;BME280;43397;51.530;5.974;2023-01-28T06:26:28;102560.03;;;4.96;67.43
57562;BME280;43397;51.530;5.974;2023-01-28T06:28:54;102567.13;;;4.97;66.62
57562;BME280;43397;51.530;5.974;2023-01-28T06:31:19;102572.06;;;5.10;66.40
57562;BME280;43397;51.530;5.974;2023-01-28T06:33:45;102561.84;;;4.97;65.96
57562;BME280;43397;51.530;5.974;2023-01-28T06:36:12;102564.97;;;5.30;65.76
57562;BME280;43397;51.530;5.974;2023-01-28T06:38:38;102569.75;;;4.97;66.41
57562;BME280;43397;51.530;5.974;2023-01-28T06:41:04;102566.66;;;4.86;67.12
57562;BME280;43397;51.530;5.974;2023-01-28T06:43:29;102568.50;;;5.52;66.54
57562;BME280;43397;51.530;5.974;2023-01-28T06:45:55;102573.53;;;5.91;64.65
57562;BME280;43397;51.530;5.974;2023-01-28T06:48:21;102572.09;;;5.76;63.98
57562;BME280;43397;51.530;5.974;2023-01-28T06:50:48;102574.28;;;5.43;65.06
57562;BME280;43397;51.530;5.974;2023-01-28T06:53:16;102578.75;;;5.67;64.27
57562;BME280;43397;51.530;5.974;2023-01-28T06:55:41;102571.28;;;5.34;64.71
57562;BME280;43397;51.530;5.974;2023-01-28T06:58:08;102566.97;;;4.73;68.44
57562;BME280;43397;51.530;5.974;2023-01-28T07:00:34;102572.06;;;5.10;64.92
57562;BME280;43397;51.530;5.974;2023-01-28T07:03:00;102582.72;;;5.13;66.13
57562;BME280;43397;51.530;5.974;2023-01-28T07:05:26;102580.47;;;5.44;62.53
57562;BME280;43397;51.530;5.974;2023-01-28T07:07:51;102583.69;;;5.80;63.21
57562;BME280;43397;51.530;5.974;2023-01-28T07:10:19;102586.41;;;5.38;64.63
57562;BME280;43397;51.530;5.974;2023-01-28T07:12:44;102581.25;;;5.20;65.85
57562;BME280;43397;51.530;5.974;2023-01-28T07:15:10;102584.47;;;5.13;66.60
57562;BME280;43397;51.530;5.974;2023-01-28T07:17:38;102575.59;;;5.32;65.59
57562;BME280;43397;51.530;5.974;2023-01-28T07:20:05;102580.59;;;5.05;66.04
57562;BME280;43397;51.530;5.974;2023-01-28T07:22:31;102581.28;;;4.39;66.66
57562;BME280;43397;51.530;5.974;2023-01-28T07:24:58;102576.59;;;4.72;65.62
57562;BME280;43397;51.530;5.974;2023-01-28T07:27:25;102573.56;;;5.25;65.65
57562;BME280;43397;51.530;5.974;2023-01-28T07:29:51;102577.47;;;5.34;64.51
57562;BME280;43397;51.530;5.974;2023-01-28T07:32:17;102584.41;;;5.32;64.94
57562;BME280;43397;51.530;5.974;2023-01-28T07:34:43;102587.16;;;4.93;66.34
57562;BME280;43397;51.530;5.974;2023-01-28T07:37:09;102603.88;;;5.15;65.51
57562;BME280;43397;51.530;5.974;2023-01-28T07:39:35;102606.91;;;5.03;66.07
57562;BME280;43397;51.530;5.974;2023-01-28T07:42:01;102606.25;;;5.09;66.09
57562;BME280;43397;51.530;5.974;2023-01-28T07:44:28;102601.19;;;5.13;64.13
57562;BME280;43397;51.530;5.974;2023-01-28T07:46:53;102609.16;;;5.36;65.17
57562;BME280;43397;51.530;5.974;2023-01-28T07:49:19;102611.91;;;5.18;65.11
57562;BME280;43397;51.530;5.974;2023-01-28T07:51:45;102604.22;;;5.23;64.87
57562;BME280;43397;51.530;5.974;2023-01-28T07:54:10;102607.03;;;5.06;65.71
57562;BME280;43397;51.530;5.974;2023-01-28T07:56:36;102606.53;;;4.74;67.00
57562;BME280;43397;51.530;5.974;2023-01-28T07:59:02;102617.75;;;4.90;66.37
57562;BME280;43397;51.530;5.974;2023-01-28T08:01:29;102617.78;;;5.11;65.22
57562;BME280;43397;51.530;5.974;2023-01-28T08:03:55;102625.81;;;5.35;63.12
57562;BME280;43397;51.530;5.974;2023-01-28T08:06:21;102628.00;;;5.24;63.65
57562;BME280;43397;51.530;5.974;2023-01-28T08:08:48;102633.91;;;4.98;64.98
57562;BME280;43397;51.530;5.974;2023-01-28T08:11:13;102631.22;;;5.17;64.11
57562;BME280;43397;51.530;5.974;2023-01-28T08:13:41;102632.31;;;5.43;64.47
57562;BME280;43397;51.530;5.974;2023-01-28T08:16:06;102634.44;;;5.10;63.22
57562;BME280;43397;51.530;5.974;2023-01-28T08:18:33;102634.53;;;5.55;63.87
57562;BME280;43397;51.530;5.974;2023-01-28T08:20:59;102645.78;;;5.09;65.15
57562;BME280;43397;51.530;5.974;2023-01-28T08:23:27;102649.41;;;5.11;65.03
57562;BME280;43397;51.530;5.974;2023-01-28T08:25:52;102658.97;;;5.09;64.21
57562;BME280;43397;51.530;5.974;2023-01-28T08:28:19;102654.72;;;4.72;65.49
57562;BME280;43397;51.530;5.974;2023-01-28T08:30:45;102656.47;;;4.71;65.29
57562;BME280;43397;51.530;5.974;2023-01-28T08:33:13;102655.00;;;5.40;63.14
57562;BME280;43397;51.530;5.974;2023-01-28T08:35:40;102658.53;;;5.19;62.65
57562;BME280;43397;51.530;5.974;2023-01-28T08:38:08;102663.22;;;5.26;64.11
57562;BME280;43397;51.530;5.974;2023-01-28T08:40:35;102667.88;;;4.91;64.53
57562;BME280;43397;51.530;5.974;2023-01-28T08:43:02;102680.56;;;5.41;64.32
57562;BME280;43397;51.530;5.974;2023-01-28T08:45:28;102677.09;;;5.85;62.32
57562;BME280;43397;51.530;5.974;2023-01-28T08:47:55;102677.16;;;5.64;62.82
57562;BME280;43397;51.530;5.974;2023-01-28T08:50:23;102687.56;;;5.61;63.47
57562;BME280;43397;51.530;5.974;2023-01-28T08:52:54;102681.63;;;5.46;62.50
57562;BME280;43397;51.530;5.974;2023-01-28T08:55:20;102691.66;;;5.54;64.26
57562;BME280;43397;51.530;5.974;2023-01-28T08:57:46;102689.72;;;5.08;64.92
57562;BME280;43397;51.530;5.974;2023-01-28T09:00:13;102686.13;;;5.27;66.93
57562;BME280;43397;51.530;5.974;2023-01-28T09:02:39;102694.41;;;5.15;66.88
57562;BME280;43397;51.530;5.974;2023-01-28T09:05:05;102696.44;;;5.84;66.11
57562;BME280;43397;51.530;5.974;2023-01-28T09:07:33;102696.56;;;5.05;65.84
57562;BME280;43397;51.530;5.974;2023-01-28T09:10:00;102687.72;;;5.24;66.20
57562;BME280;43397;51.530;5.974;2023-01-28T09:12:26;102701.03;;;5.06;65.70
57562;BME280;43397;51.530;5.974;2023-01-28T09:14:51;102711.97;;;5.15;65.91
57562;BME280;43397;51.530;5.974;2023-01-28T09:17:17;102696.56;;;5.05;67.46
57562;BME280;43397;51.530;5.974;2023-01-28T09:19:43;102703.75;;;5.28;66.56
57562;BME280;43397;51.530;5.974;2023-01-28T09:22:09;102703.00;;;5.11;66.21
57562;BME280;43397;51.530;5.974;2023-01-28T09:24:34;102696.53;;;5.03;67.92
57562;BME280;43397;51.530;5.974;2023-01-28T09:27:01;102701.75;;;5.23;68.50
57562;BME280;43397;51.530;5.974;2023-01-28T09:29:27;102712.63;;;5.72;68.04
57562;BME280;43397;51.530;5.974;2023-01-28T09:31:53;102716.50;;;5.39;65.95
57562;BME280;43397;51.530;5.974;2023-01-28T09:34:20;102720.81;;;5.36;67.67
57562;BME280;43397;51.530;5.974;2023-01-28T09:36:45;102712.84;;;5.15;65.60
57562;BME280;43397;51.530;5.974;2023-01-28T09:39:11;102705.41;;;5.05;67.16
57562;BME280;43397;51.530;5.974;2023-01-28T09:41:44;102719.41;;;4.85;68.04
57562;BME280;43397;51.530;5.974;2023-01-28T09:44:31;102721.72;;;5.18;66.11
57562;BME280;43397;51.530;5.974;2023-01-28T09:47:03;102725.06;;;5.54;67.18
57562;BME280;43397;51.530;5.974;2023-01-28T09:49:33;102717.84;;;5.09;65.91
57562;BME280;43397;51.530;5.974;2023-01-28T09:52:00;102709.22;;;5.33;65.74
57562;BME280;43397;51.530;5.974;2023-01-28T09:54:31;102704.97;;;5.36;66.77
57562;BME280;43397;51.530;5.974;2023-01-28T09:57:03;102713.94;;;5.40;66.52
57562;BME280;43397;51.530;5.974;2023-01-28T09:59:33;102720.06;;;5.60;65.38
57562;BME280;43397;51.530;5.974;2023-01-28T10:02:07;102723.91;;;5.47;65.42
57562;BME280;43397;51.530;5.974;2023-01-28T10:04:50;102731.50;;;5.61;65.37
57562;BME280;43397;51.530;5.974;2023-01-28T10:07:28;102727.88;;;5.38;65.19
57562;BME280;43397;51.530;5.974;2023-01-28T10:10:01;102722.94;;;5.87;63.57
57562;BME280;43397;51.530;5.974;2023-01-28T10:12:38;102734.38;;;5.88;64.39
57562;BME280;43397;51.530;5.974;2023-01-28T10:15:29;102739.22;;;5.15;67.21
57562;BME280;43397;51.530;5.974;2023-01-28T10:18:00;102729.59;;;4.77;67.28
57562;BME280;43397;51.530;5.974;2023-01-28T10:20:29;102742.78;;;4.59;69.10
57562;BME280;43397;51.530;5.974;2023-01-28T10:23:00;102742.69;;;4.95;67.30
57562;BME280;43397;51.530;5.974;2023-01-28T10:25:30;102736.03;;;5.23;68.60
57562;BME280;43397;51.530;5.974;2023-01-28T10:27:57;102739.28;;;4.98;68.47
57562;BME280;43397;51.530;5.974;2023-01-28T10:30:29;102736.94;;;5.04;66.29
57562;BME280;43397;51.530;5.974;2023-01-28T10:32:57;102742.19;;;4.65;67.95
57562;BME280;43397;51.530;5.974;2023-01-28T10:35:25;102757.47;;;4.91;66.21
57562;BME280;43397;51.530;5.974;2023-01-28T10:37:54;102739.91;;;4.92;65.45
57562;BME280;43397;51.530;5.974;2023-01-28T10:40:23;102742.78;;;4.97;65.37
57562;BME280;43397;51.530;5.974;2023-01-28T10:42:49;102739.97;;;4.74;67.69
57562;BME280;43397;51.530;5.974;2023-01-28T10:45:18;102743.69;;;4.97;66.71
57562;BME280;43397;51.530;5.974;2023-01-28T10:47:50;102728.22;;;5.45;66.03
57562;BME280;43397;51.530;5.974;2023-01-28T10:50:22;102727.56;;;5.72;63.64
57562;BME280;43397;51.530;5.974;2023-01-28T10:52:55;102732.44;;;5.21;66.25
57562;BME280;43397;51.530;5.974;2023-01-28T10:55:21;102753.72;;;5.25;67.55
57562;BME280;43397;51.530;5.974;2023-01-28T10:57:49;102739.47;;;5.41;66.14
57562;BME280;43397;51.530;5.974;2023-01-28T11:00:22;102729.69;;;5.39;64.50
57562;BME280;43397;51.530;5.974;2023-01-28T11:02:50;102737.28;;;5.52;65.54
57562;BME280;43397;51.530;5.974;2023-01-28T11:05:17;102735.41;;;5.70;65.28
57562;BME280;43397;51.530;5.974;2023-01-28T11:07:44;102727.13;;;5.61;64.56
57562;BME280;43397;51.530;5.974;2023-01-28T11:10:25;102725.22;;;5.99;64.59
57562;BME280;43397;51.530;5.974;2023-01-28T11:12:55;102721.81;;;6.47;63.33
57562;BME280;43397;51.530;5.974;2023-01-28T11:15:20;102729.97;;;6.08;64.54
57562;BME280;43397;51.530;5.974;2023-01-28T11:17:50;102736.44;;;5.53;64.35
57562;BME280;43397;51.530;5.974;2023-01-28T11:20:20;102744.84;;;5.23;65.95
57562;BME280;43397;51.530;5.974;2023-01-28T11:22:47;102731.47;;;5.19;67.27
57562;BME280;43397;51.530;5.974;2023-01-28T11:25:16;102731.94;;;5.71;65.59
57562;BME280;43397;51.530;5.974;2023-01-28T11:27:46;102725.19;;;5.36;65.59
57562;BME280;43397;51.530;5.974;2023-01-28T11:30:20;102722.50;;;5.55;66.79
57562;BME280;43397;51.530;5.974;2023-01-28T11:32:54;102721.72;;;5.58;65.52
57562;BME280;43397;51.530;5.974;2023-01-28T11:35:24;102704.69;;;5.71;63.38
57562;BME280;43397;51.530;5.974;2023-01-28T11:37:50;102698.94;;;5.39;65.22
57562;BME280;43397;51.530;5.974;2023-01-28T11:40:18;102696.44;;;5.42;63.94
57562;BME280;43397;51.530;5.974;2023-01-28T11:42:43;102686.72;;;5.41;65.80
57562;BME280;43397;51.530;5.974;2023-01-28T11:45:15;102691.22;;;5.86;65.09
57562;BME280;43397;51.530;5.974;2023-01-28T11:47:59;102682.78;;;5.73;63.20
57562;BME280;43397;51.530;5.974;2023-01-28T11:50:38;102689.84;;;4.92;66.29
57562;BME280;43397;51.530;5.974;2023-01-28T11:53:38;102688.56;;;4.82;67.36
57562;BME280;43397;51.530;5.974;2023-01-28T11:56:18;102676.47;;;4.68;66.07
57562;BME280;43397;51.530;5.974;2023-01-28T11:58:55;102685.00;;;5.85;64.46
57562;BME280;43397;51.530;5.974;2023-01-28T12:01:29;102689.47;;;5.86;64.92
57562;BME280;43397;51.530;5.974;2023-01-28T12:04:20;102678.25;;;5.92;63.75
57562;BME280;43397;51.530;5.974;2023-01-28T12:07:08;102669.16;;;5.42;65.27
57562;BME280;43397;51.530;5.974;2023-01-28T12:09:45;102662.66;;;5.54;64.15
57562;BME280;43397;51.530;5.974;2023-01-28T12:12:39;102647.81;;;5.56;62.82
57562;BME280;43397;51.530;5.974;2023-01-28T12:15:25;102632.94;;;5.38;63.07
57562;BME280;43397;51.530;5.974;2023-01-28T12:18:06;102624.03;;;5.77;62.85
57562;BME280;43397;51.530;5.974;2023-01-28T12:20:43;102599.44;;;5.78;62.78
57562;BME280;43397;51.530;5.974;2023-01-28T12:23:24;102600.19;;;6.68;61.00
57562;BME280;43397;51.530;5.974;2023-01-28T12:26:04;102595.69;;;7.71;58.82
57562;BME280;43397;51.530;5.974;2023-01-28T12:28:41;102598.38;;;7.99;56.88
57562;BME280;43397;51.530;5.974;2023-01-28T12:31:34;102602.81;;;7.72;57.22
57562;BME280;43397;51.530;5.974;2023-01-28T12:34:19;102605.25;;;7.66;59.82
57562;BME280;43397;51.530;5.974;2023-01-28T12:36:56;102595.28;;;7.04;62.41
57562;BME280;43397;51.530;5.974;2023-01-28T12:39:39;102608.28;;;7.78;59.65
57562;BME280;43397;51.530;5.974;2023-01-28T12:42:14;102617.84;;;7.46;59.64
57562;BME280;43397;51.530;5.974;2023-01-28T12:44:47;102626.81;;;6.26;60.83
57562;BME280;43397;51.530;5.974;2023-01-28T12:47:18;102630.09;;;6.20;62.20
57562;BME280;43397;51.530;5.974;2023-01-28T12:49:48;102628.97;;;6.13;63.81
57562;BME280;43397;51.530;5.974;2023-01-28T12:52:19;102629.50;;;5.61;62.75
57562;BME280;43397;51.530;5.974;2023-01-28T12:54:53;102622.34;;;5.80;65.19
57562;BME280;43397;51.530;5.974;2023-01-28T12:57:22;102632.50;;;6.61;61.15
57562;BME280;43397;51.530;5.974;2023-01-28T12:59:51;102640.66;;;6.91;61.46
57562;BME280;43397;51.530;5.974;2023-01-28T13:02:24;102641.78;;;6.97;65.27
57562;BME280;43397;51.530;5.974;2023-01-28T13:04:57;102642.16;;;7.34;59.26
57562;BME280;43397;51.530;5.974;2023-01-28T13:07:32;102630.53;;;7.56;63.97